Zion, Arkansas
Current Conditions -  °F | °C
As of 2:15 PM on Monday 24 Nov 2014 (Local Time) from KBVX Reporting Station
Clear Clear  
Wind Chill: 57°   Ceiling: Unl
Heat Index: 57°   Visibility: 10mi
Dew Point: 30°   Wind: 14mph
Humidity: 36%   Direction: 210°SSW
Pressure: 29.84"   Gusts: 23mph
Location:  36.0615°N, 91.9058°W
Report Text: KBVX 242015Z AUTO 21012G20KT 10SM CLR 14/M01 A2984 RMK AO1
Loading
Personal Weather Stations






























Interactive Weather Map New forecast layout! Learn more

10-Day Weather Forecast

Advertisements
Track Severe Weather on mobile